Time;durP1;ratioP1;P1;durP2;ratioP2;P2;SDS_P1;SDS_P2;PMS_P1;PMS_P2;Temp;Humidity;BMP_temperature;BMP_pressure;BME280_temperature;BME280_humidity;BME280_pressure;Samples;Min_cycle;Max_cycle;Signal;HPM_P1;HPM_P2
2022/01/29 00:01:37;;;;;;;0.40;0.20;;;;;;;4.40;85.39;102173.25;5033080;28;20463;-69
2022/01/29 00:04:03;;;;;;;0.40;0.20;;;;;;;4.37;85.62;102165.66;5033207;28;20447;-69
2022/01/29 00:06:30;;;;;;;0.40;0.20;;;;;;;4.41;85.52;102174.91;5033078;28;20442;-69
2022/01/29 00:08:58;;;;;;;0.40;0.30;;;;;;;4.48;85.51;102172.16;5032583;28;20470;-69
2022/01/29 00:11:28;;;;;;;0.40;0.30;;;;;;;4.48;84.91;102166.81;5033058;28;20463;-69
2022/01/29 00:13:55;;;;;;;0.40;0.30;;;;;;;4.47;85.27;102162.44;5033074;28;20427;-69
2022/01/29 00:16:22;;;;;;;0.40;0.30;;;;;;;4.52;85.18;102162.63;5033005;28;20447;-69
2022/01/29 00:18:48;;;;;;;0.40;0.30;;;;;;;4.53;84.98;102154.34;5033043;28;20438;-69
2022/01/29 00:21:15;;;;;;;0.40;0.30;;;;;;;4.53;84.68;102151.66;5032892;28;20467;-69
2022/01/29 00:23:41;;;;;;;0.40;0.20;;;;;;;4.53;84.74;102149.00;5033004;28;20435;-71
2022/01/29 00:26:11;;;;;;;0.40;0.27;;;;;;;4.55;84.55;102132.66;5033030;28;20443;-70
2022/01/29 00:28:37;;;;;;;0.73;0.73;;;;;;;4.54;84.14;102139.06;5032989;28;20816;-69
2022/01/29 00:31:04;;;;;;;0.40;0.30;;;;;;;4.54;84.16;102125.66;5032761;28;20483;-71
2022/01/29 00:33:30;;;;;;;0.40;0.30;;;;;;;4.53;84.58;102127.53;5032850;28;20447;-69
2022/01/29 00:35:57;;;;;;;0.40;0.20;;;;;;;4.55;84.28;102125.44;5032954;28;20474;-69
2022/01/29 00:38:23;;;;;;;0.40;0.30;;;;;;;4.57;84.61;102129.78;5032791;28;20443;-69
2022/01/29 00:40:49;;;;;;;0.40;0.30;;;;;;;4.60;84.66;102124.75;5032699;28;20455;-69
2022/01/29 00:43:18;;;;;;;0.40;0.23;;;;;;;4.64;84.68;102127.81;5032761;28;20447;-69
2022/01/29 00:45:44;;;;;;;0.40;0.20;;;;;;;4.65;84.70;102127.63;5032731;28;20478;-69
2022/01/29 00:48:11;;;;;;;0.40;0.30;;;;;;;4.68;83.79;102129.84;5032997;28;20500;-69
2022/01/29 00:50:37;;;;;;;0.40;0.20;;;;;;;4.64;83.54;102111.72;5036306;28;20487;-69
2022/01/29 00:53:04;;;;;;;0.40;0.30;;;;;;;4.62;84.10;102111.94;5036596;28;20866;-69
2022/01/29 00:55:30;;;;;;;0.40;0.30;;;;;;;4.59;84.18;102106.19;5036405;28;20446;-69
2022/01/29 00:57:57;;;;;;;0.40;0.30;;;;;;;4.61;84.37;102096.91;5036499;28;20453;-69
2022/01/29 01:00:24;;;;;;;0.40;0.20;;;;;;;4.59;84.27;102090.91;5036193;28;20467;-69
2022/01/29 01:02:51;;;;;;;0.40;0.30;;;;;;;4.61;84.94;102079.97;5036221;28;20443;-69
2022/01/29 01:05:17;;;;;;;0.40;0.30;;;;;;;4.63;83.92;102083.25;5036187;28;20522;-69
2022/01/29 01:07:44;;;;;;;0.40;0.30;;;;;;;4.65;83.86;102073.94;5035950;28;20458;-69
2022/01/29 01:10:12;;;;;;;0.40;0.27;;;;;;;4.66;84.56;102062.16;5036144;28;20491;-69
2022/01/29 01:12:38;;;;;;;0.40;0.20;;;;;;;4.72;83.97;102063.13;5035974;28;20504;-69
2022/01/29 01:15:06;;;;;;;0.40;0.30;;;;;;;4.72;83.69;102053.19;5035971;28;20443;-69
2022/01/29 01:17:34;;;;;;;0.40;0.30;;;;;;;4.69;84.45;102050.97;5035957;28;20443;-69
2022/01/29 01:20:00;;;;;;;0.40;0.30;;;;;;;4.71;84.50;102048.06;5035514;28;21011;-69
2022/01/29 01:22:27;;;;;;;0.40;0.30;;;;;;;4.71;84.14;102037.31;5035809;28;20497;-70
2022/01/29 01:24:53;;;;;;;0.40;0.30;;;;;;;4.70;84.06;102041.88;5035851;28;20431;-70
2022/01/29 01:27:20;;;;;;;0.40;0.30;;;;;;;4.72;83.80;102026.34;5035920;28;20483;-69
2022/01/29 01:29:46;;;;;;;0.40;0.30;;;;;;;4.72;84.22;102020.97;5035355;28;20525;-69
2022/01/29 01:32:13;;;;;;;0.40;0.20;;;;;;;4.72;84.02;102015.63;5035666;28;20439;-69
2022/01/29 01:34:46;;;;;;;0.40;0.30;;;;;;;4.72;83.70;102002.19;5035389;28;20446;-69
2022/01/29 01:37:19;;;;;;;0.40;0.20;;;;;;;4.66;84.57;101995.06;5035648;28;20796;-69
2022/01/29 01:39:46;;;;;;;0.40;0.30;;;;;;;4.69;84.29;101997.31;5035507;28;20463;-69
2022/01/29 01:42:12;;;;;;;0.40;0.30;;;;;;;4.68;84.28;102001.00;5035512;28;20478;-69
2022/01/29 01:44:43;;;;;;;0.40;0.27;;;;;;;4.69;84.39;101997.31;5035465;28;20443;-69
2022/01/29 01:47:10;;;;;;;0.40;0.30;;;;;;;4.72;84.71;101986.09;5035497;28;20534;-69
2022/01/29 01:49:38;;;;;;;0.40;0.20;;;;;;;4.74;84.93;101989.38;5035265;28;20487;-69
2022/01/29 01:52:09;;;;;;;0.40;0.23;;;;;;;4.79;84.01;101969.91;5035378;28;20447;-69
2022/01/29 01:54:36;;;;;;;0.40;0.30;;;;;;;4.73;83.91;101960.88;5035298;28;20432;-70
2022/01/29 01:57:03;;;;;;;0.40;0.30;;;;;;;4.74;84.94;101956.38;5035340;28;20439;-69
2022/01/29 01:59:30;;;;;;;0.40;0.30;;;;;;;4.74;84.28;101951.81;5035072;28;20463;-70
2022/01/29 02:01:57;;;;;;;0.40;0.20;;;;;;;4.73;84.36;101950.16;5034741;28;20450;-70
2022/01/29 02:04:23;;;;;;;0.40;0.20;;;;;;;4.75;84.61;101950.75;5035136;28;20444;-69
2022/01/29 02:06:51;;;;;;;0.40;0.20;;;;;;;4.77;84.57;101937.09;5035060;28;20443;-70
2022/01/29 02:09:21;;;;;;;0.40;0.20;;;;;;;4.81;84.74;101927.53;5034494;28;20964;-69
2022/01/29 02:11:52;;;;;;;0.40;0.30;;;;;;;4.78;85.07;101911.88;5034938;28;20450;-70
2022/01/29 02:14:19;;;;;;;0.40;0.30;;;;;;;4.79;84.81;101910.88;5034982;28;20443;-70
2022/01/29 02:16:45;;;;;;;0.40;0.30;;;;;;;4.80;84.90;101907.94;5034854;28;20451;-70
2022/01/29 02:19:12;;;;;;;0.40;0.20;;;;;;;4.76;84.81;101896.03;5034851;28;20458;-70
2022/01/29 02:21:40;;;;;;;0.40;0.20;;;;;;;4.79;85.17;101898.25;5034676;28;20481;-70
2022/01/29 02:24:07;;;;;;;0.40;0.30;;;;;;;4.77;85.29;101899.53;5034681;28;20496;-70
2022/01/29 02:26:33;;;;;;;0.40;0.20;;;;;;;4.79;85.50;101892.88;5034356;28;20439;-70
2022/01/29 02:29:00;;;;;;;0.50;0.30;;;;;;;4.81;85.78;101895.34;5034645;28;20450;-71
2022/01/29 02:31:26;;;;;;;0.40;0.30;;;;;;;4.80;86.22;101882.97;5034436;28;20491;-70
2022/01/29 02:33:53;;;;;;;0.40;0.27;;;;;;;4.78;87.66;101877.84;5034188;28;20546;-69
2022/01/29 02:36:19;;;;;;;0.40;0.30;;;;;;;4.71;88.47;101877.13;5034194;28;20450;-70
2022/01/29 02:38:47;;;;;;;0.40;0.20;;;;;;;4.60;89.46;101867.16;5034364;28;20446;-70
2022/01/29 02:41:14;;;;;;;0.40;0.20;;;;;;;4.54;90.63;101865.41;5034002;28;20969;-69
2022/01/29 02:43:46;;;;;;;0.40;0.30;;;;;;;4.52;91.75;101864.81;5034318;28;20435;-70
2022/01/29 02:46:22;;;;;;;0.40;0.30;;;;;;;4.50;92.59;101874.94;5033924;28;20420;-70
2022/01/29 02:48:50;;;;;;;0.40;0.20;;;;;;;4.44;93.34;101870.50;5034306;28;20462;-69
2022/01/29 02:51:18;;;;;;;0.40;0.30;;;;;;;4.35;93.48;101861.16;5034118;28;20491;-69
2022/01/29 02:53:44;;;;;;;0.40;0.30;;;;;;;4.27;95.02;101857.72;5034172;28;20442;-70
2022/01/29 02:56:13;;;;;;;0.40;0.30;;;;;;;4.24;94.88;101858.16;5034102;28;20453;-70
2022/01/29 02:58:40;;;;;;;0.40;0.30;;;;;;;4.17;96.97;101843.25;5034079;28;20453;-70
2022/01/29 03:01:09;;;;;;;0.40;0.30;;;;;;;4.16;95.82;101834.38;5033970;28;20494;-70
2022/01/29 03:03:36;;;;;;;0.40;0.20;;;;;;;4.15;95.97;101832.72;5033924;28;20450;-69
2022/01/29 03:06:07;;;;;;;0.40;0.20;;;;;;;4.17;96.42;101814.56;5033577;28;20447;-70
2022/01/29 03:08:33;;;;;;;0.50;0.50;;;;;;;4.14;96.33;101814.19;5033684;28;20499;-70
2022/01/29 03:11:00;;;;;;;0.40;0.20;;;;;;;4.11;97.38;101809.28;5033380;28;20996;-70
2022/01/29 03:13:27;;;;;;;0.40;0.20;;;;;;;4.13;97.07;101808.00;5032957;28;20447;-70
2022/01/29 03:15:54;;;;;;;0.40;0.20;;;;;;;4.12;97.64;101805.53;5033801;28;20446;-70
2022/01/29 03:18:20;;;;;;;0.40;0.20;;;;;;;4.12;97.52;101810.91;5033741;28;20446;-70
2022/01/29 03:20:47;;;;;;;0.40;0.27;;;;;;;4.09;98.06;101804.16;5033299;28;20838;-70
2022/01/29 03:23:13;;;;;;;0.40;0.20;;;;;;;4.09;98.57;101796.09;5033682;28;20443;-70
2022/01/29 03:25:40;;;;;;;0.40;0.20;;;;;;;4.09;99.30;101798.78;5033631;28;20447;-70
2022/01/29 03:28:06;;;;;;;0.40;0.20;;;;;;;4.04;99.18;101785.25;5033248;28;20940;-70
2022/01/29 03:30:34;;;;;;;0.40;0.30;;;;;;;4.03;100.00;101787.13;5033325;28;20486;-69
2022/01/29 03:33:01;;;;;;;0.40;0.30;;;;;;;4.01;100.00;101766.94;5033202;28;20451;-68
2022/01/29 03:35:27;;;;;;;0.40;0.20;;;;;;;4.03;100.00;101765.69;5033497;28;20439;-70
2022/01/29 03:37:53;;;;;;;0.40;0.30;;;;;;;3.98;100.00;101762.84;5033135;28;20879;-70
2022/01/29 03:40:20;;;;;;;0.40;0.30;;;;;;;3.97;100.00;101752.34;5033386;28;20833;-70
2022/01/29 03:42:58;;;;;;;0.40;0.20;;;;;;;3.95;100.00;101741.06;5033460;28;20447;-70
2022/01/29 03:45:25;;;;;;;0.40;0.20;;;;;;;3.91;100.00;101753.28;5033080;28;20801;-70
2022/01/29 03:47:52;;;;;;;0.40;0.20;;;;;;;3.90;100.00;101740.94;5033316;28;20442;-70
2022/01/29 03:50:19;;;;;;;0.40;0.27;;;;;;;3.92;100.00;101741.50;5033186;28;20491;-70
2022/01/29 03:52:45;;;;;;;0.50;0.40;;;;;;;3.90;100.00;101728.34;5033215;28;20527;-70
2022/01/29 03:55:12;;;;;;;0.40;0.30;;;;;;;3.94;100.00;101734.03;5033206;28;20446;-69
2022/01/29 03:57:38;;;;;;;0.40;0.30;;;;;;;3.93;100.00;101713.66;5033270;28;20482;-69
2022/01/29 04:00:06;;;;;;;0.40;0.20;;;;;;;3.93;100.00;101714.47;5033145;28;20467;-69
2022/01/29 04:02:33;;;;;;;0.40;0.30;;;;;;;3.99;100.00;101702.03;5033156;28;20454;-69
2022/01/29 04:05:01;;;;;;;0.40;0.20;;;;;;;4.02;100.00;101698.88;5033091;28;20443;-69
2022/01/29 04:07:28;;;;;;;0.40;0.30;;;;;;;4.05;100.00;101690.38;5032966;28;20478;-69
2022/01/29 04:09:54;;;;;;;0.40;0.20;;;;;;;4.05;100.00;101691.19;5033095;28;20477;-69
2022/01/29 04:12:23;;;;;;;0.40;0.20;;;;;;;4.04;100.00;101678.84;5033162;28;20486;-69
2022/01/29 04:14:52;;;;;;;0.40;0.30;;;;;;;4.05;100.00;101690.38;5033102;28;20489;-69
2022/01/29 04:17:18;;;;;;;0.40;0.20;;;;;;;4.08;100.00;101683.75;5032767;28;20949;-69
2022/01/29 04:19:44;;;;;;;0.40;0.30;;;;;;;4.12;100.00;101680.38;5032940;28;20509;-69
2022/01/29 04:22:12;;;;;;;2.53;2.10;;;;;;;4.14;100.00;101664.84;5032956;28;20469;-69
2022/01/29 04:24:39;;;;;;;0.40;0.30;;;;;;;4.15;100.00;101669.16;5035913;28;20450;-69
2022/01/29 04:27:14;;;;;;;1.27;1.27;;;;;;;4.15;100.00;101655.75;5036903;28;20451;-69
2022/01/29 04:29:52;;;;;;;0.40;0.30;;;;;;;4.19;100.00;101651.56;5036723;28;20496;-69
2022/01/29 04:32:25;;;;;;;0.40;0.20;;;;;;;4.19;100.00;101648.88;5036765;28;20467;-69
2022/01/29 04:34:51;;;;;;;0.40;0.20;;;;;;;4.19;100.00;101646.22;5036825;28;20860;-70
2022/01/29 04:37:19;;;;;;;0.40;0.30;;;;;;;4.18;100.00;101641.09;5036441;28;20967;-69
2022/01/29 04:39:45;;;;;;;0.60;0.60;;;;;;;4.18;100.00;101638.41;5036593;28;20459;-70
2022/01/29 04:42:12;;;;;;;1.47;1.37;;;;;;;4.15;100.00;101626.28;5036726;28;20439;-73
2022/01/29 04:44:38;;;;;;;0.50;0.50;;;;;;;4.13;100.00;101620.34;5036591;28;20447;-75
2022/01/29 04:47:05;;;;;;;2.73;2.27;;;;;;;4.16;100.00;101619.88;5036614;28;20443;-73
2022/01/29 04:49:31;;;;;;;0.40;0.20;;;;;;;4.13;100.00;101606.13;5036550;28;20443;-71
2022/01/29 04:51:57;;;;;;;0.40;0.20;;;;;;;4.09;100.00;101605.75;5036358;28;20490;-71
2022/01/29 04:54:25;;;;;;;0.40;0.30;;;;;;;4.09;100.00;101602.28;5036431;28;20442;-71
2022/01/29 04:56:52;;;;;;;0.40;0.30;;;;;;;4.06;100.00;101598.16;5036358;28;20838;-71
2022/01/29 04:59:18;;;;;;;0.40;0.30;;;;;;;4.06;100.00;101590.13;5036346;28;20497;-70
2022/01/29 05:01:44;;;;;;;0.40;0.20;;;;;;;4.04;100.00;101582.34;5035969;28;20967;-71
2022/01/29 05:04:11;;;;;;;0.40;0.30;;;;;;;4.01;100.00;101573.94;5036250;28;20458;-71
2022/01/29 05:06:37;;;;;;;0.40;0.20;;;;;;;3.99;100.00;101568.81;5037223;28;20944;-71
2022/01/29 05:09:07;;;;;;;0.40;0.30;;;;;;;3.97;100.00;101564.72;5035842;28;20462;-71
2022/01/29 05:11:34;;;;;;;0.40;0.30;;;;;;;3.96;100.00;101565.78;5035641;28;20946;-70
2022/01/29 05:14:03;;;;;;;0.40;0.20;;;;;;;3.96;100.00;101555.88;5036081;28;20497;-70
2022/01/29 05:16:44;;;;;;;0.40;0.30;;;;;;;3.92;100.00;101538.63;5035973;28;20443;-70
2022/01/29 05:27:23;;;;;;;0.40;0.20;;;;;;;3.89;100.00;101520.31;5035757;28;20415;-70
2022/01/29 05:29:50;;;;;;;0.40;0.20;;;;;;;3.89;100.00;101508.78;5035749;28;20466;-70
2022/01/29 05:32:16;;;;;;;0.40;0.20;;;;;;;3.90;100.00;101505.91;5035694;28;20490;-70
2022/01/29 05:34:43;;;;;;;0.40;0.30;;;;;;;3.89;100.00;101493.53;5034914;28;20444;-69
2022/01/29 05:37:09;;;;;;;0.40;0.30;;;;;;;3.91;100.00;101472.69;5035487;28;20451;-69
2022/01/29 05:39:37;;;;;;;4.40;3.30;;;;;;;3.90;100.00;101472.91;5035186;28;20826;-69
2022/01/29 05:42:04;;;;;;;0.40;0.30;;;;;;;3.93;100.00;101472.44;5035546;28;20443;-69
2022/01/29 05:44:31;;;;;;;0.40;0.23;;;;;;;3.96;100.00;101467.44;5035211;28;20937;-69
2022/01/29 05:46:58;;;;;;;0.40;0.30;;;;;;;3.95;100.00;101460.44;5035396;28;20443;-70
2022/01/29 05:49:24;;;;;;;0.40;0.30;;;;;;;3.98;100.00;101464.50;5035004;28;20458;-69
2022/01/29 05:51:52;;;;;;;0.40;0.30;;;;;;;3.95;100.00;101460.44;5035333;28;20494;-69
2022/01/29 05:54:19;;;;;;;0.40;0.20;;;;;;;3.92;100.00;101449.38;5035324;28;20443;-70
2022/01/29 05:56:45;;;;;;;2.93;1.47;;;;;;;3.95;100.00;101454.28;5034992;28;20479;-69
2022/01/29 05:59:12;;;;;;;0.40;0.20;;;;;;;3.93;100.00;101435.72;5035182;28;20453;-70
2022/01/29 06:01:39;;;;;;;0.40;0.30;;;;;;;3.94;100.00;101439.22;5035100;28;20467;-69
2022/01/29 06:04:06;;;;;;;0.40;0.20;;;;;;;3.95;100.00;101433.63;5035129;28;20447;-69
2022/01/29 06:06:33;;;;;;;0.40;0.30;;;;;;;3.94;100.00;101434.69;5035099;28;20482;-70
2022/01/29 06:09:01;;;;;;;0.40;0.30;;;;;;;3.98;100.00;101430.47;5034686;28;20473;-70
2022/01/29 06:11:28;;;;;;;0.40;0.30;;;;;;;3.99;100.00;101420.59;5034843;28;20486;-70
2022/01/29 06:13:54;;;;;;;0.40;0.23;;;;;;;4.01;100.00;101421.97;5034872;28;20444;-69
2022/01/29 06:16:20;;;;;;;0.40;0.20;;;;;;;4.05;100.00;101408.91;5034906;28;20443;-70
2022/01/29 06:18:48;;;;;;;0.40;0.20;;;;;;;4.06;100.00;101413.22;5034531;28;20937;-70
2022/01/29 06:21:15;;;;;;;0.40;0.30;;;;;;;4.07;100.00;101403.28;5034710;28;20467;-70
2022/01/29 06:23:43;;;;;;;0.40;0.20;;;;;;;4.06;100.00;101391.75;5034740;28;20443;-70
2022/01/29 06:26:12;;;;;;;0.40;0.30;;;;;;;4.05;100.00;101385.59;5034730;28;20501;-70
2022/01/29 06:28:39;;;;;;;0.40;0.30;;;;;;;4.07;100.00;101384.53;5034670;28;20459;-68
2022/01/29 06:31:06;;;;;;;0.50;0.40;;;;;;;4.05;100.00;101379.41;5034452;28;20491;-68
2022/01/29 06:33:33;;;;;;;0.40;0.20;;;;;;;4.06;100.00;101367.63;5034566;28;20447;-68
2022/01/29 06:36:01;;;;;;;0.40;0.20;;;;;;;4.04;100.00;101378.59;5034227;28;20862;-68
2022/01/29 06:38:28;;;;;;;0.40;0.20;;;;;;;4.05;100.00;101363.34;5034404;28;20447;-67
2022/01/29 06:40:54;;;;;;;0.40;0.20;;;;;;;4.04;100.00;101367.06;5034342;28;20529;-68
2022/01/29 06:43:21;;;;;;;1.20;1.20;;;;;;;4.04;100.00;101370.56;5034041;28;20953;-68
2022/01/29 06:45:47;;;;;;;0.40;0.30;;;;;;;4.04;100.00;101364.41;5034228;28;20443;-68
2022/01/29 06:48:15;;;;;;;0.40;0.30;;;;;;;4.01;100.00;101356.81;5034273;28;20447;-68
2022/01/29 06:50:42;;;;;;;0.87;0.80;;;;;;;3.98;100.00;101347.38;5034202;28;20459;-67
2022/01/29 06:53:10;;;;;;;0.40;0.20;;;;;;;3.99;100.00;101350.91;5034083;28;20482;-67
2022/01/29 06:55:36;;;;;;;0.40;0.20;;;;;;;4.04;100.00;101340.28;5034171;28;20435;-67
2022/01/29 06:58:03;;;;;;;0.40;0.30;;;;;;;4.09;100.00;101332.31;5034097;28;20447;-67
2022/01/29 07:00:30;;;;;;;0.40;0.20;;;;;;;4.13;100.00;101333.47;5034009;28;20470;-67
2022/01/29 07:02:57;;;;;;;0.40;0.30;;;;;;;4.12;100.00;101322.97;5034108;28;20439;-68
2022/01/29 07:05:23;;;;;;;0.40;0.30;;;;;;;4.09;100.00;101328.84;5033679;28;20450;-67
2022/01/29 07:07:50;;;;;;;0.40;0.30;;;;;;;4.11;100.00;101330.19;5033719;28;20496;-68
2022/01/29 07:10:18;;;;;;;0.40;0.20;;;;;;;4.15;100.00;101325.19;5033860;28;20471;-68
2022/01/29 07:12:44;;;;;;;0.40;0.30;;;;;;;4.14;100.00;101310.97;5033763;28;20491;-67
2022/01/29 07:15:12;;;;;;;0.40;0.30;;;;;;;4.17;100.00;101310.50;5033891;28;20454;-68
2022/01/29 07:17:38;;;;;;;0.40;0.20;;;;;;;4.18;100.00;101308.63;5033774;28;20443;-68
2022/01/29 07:20:07;;;;;;;0.40;0.20;;;;;;;4.18;100.00;101304.06;5033686;28;20466;-68
2022/01/29 07:22:33;;;;;;;0.40;0.30;;;;;;;4.20;100.00;101293.09;5033677;28;20439;-68
2022/01/29 07:24:59;;;;;;;0.40;0.30;;;;;;;4.23;100.00;101290.75;5033644;28;20450;-68
2022/01/29 07:27:27;;;;;;;0.40;0.23;;;;;;;4.23;100.00;101276.53;5033545;28;20447;-68
2022/01/29 07:29:54;;;;;;;0.40;0.30;;;;;;;4.20;100.00;101277.00;5033219;28;20466;-68
2022/01/29 07:32:20;;;;;;;0.40;0.30;;;;;;;4.23;100.00;101269.31;5033122;28;20487;-68
2022/01/29 07:34:46;;;;;;;2.30;2.20;;;;;;;4.23;100.00;101269.31;5033445;28;20442;-68
2022/01/29 07:37:13;;;;;;;0.97;0.97;;;;;;;4.26;100.00;101259.97;5033489;28;20451;-67
2022/01/29 07:39:39;;;;;;;0.40;0.30;;;;;;;4.29;100.00;101257.63;5033297;28;20443;-68
2022/01/29 07:42:06;;;;;;;0.40;0.30;;;;;;;4.33;100.00;101241.03;5033394;28;20470;-68
2022/01/29 07:44:34;;;;;;;0.40;0.30;;;;;;;4.32;100.00;101240.22;5033342;28;20443;-68
2022/01/29 07:47:01;;;;;;;0.40;0.23;;;;;;;4.32;100.00;101237.53;5033403;28;20469;-68
2022/01/29 07:49:27;;;;;;;0.40;0.20;;;;;;;4.38;100.00;101238.44;5033165;28;20450;-68
2022/01/29 07:51:54;;;;;;;0.40;0.20;;;;;;;4.39;100.00;101242.75;5033389;28;20487;-70
2022/01/29 07:54:20;;;;;;;0.50;0.40;;;;;;;4.42;100.00;101236.88;5033142;28;20964;-69
2022/01/29 07:56:46;;;;;;;0.40;0.20;;;;;;;4.42;100.00;101218.13;5033140;28;20439;-69
2022/01/29 07:59:13;;;;;;;0.40;0.30;;;;;;;4.43;100.00;101215.22;5032595;28;20447;-68
2022/01/29 08:01:41;;;;;;;0.40;0.20;;;;;;;4.46;100.00;101205.84;5032974;28;20463;-68
2022/01/29 08:04:07;;;;;;;0.40;0.20;;;;;;;4.47;100.00;101205.63;5033124;28;20443;-68
2022/01/29 08:06:34;;;;;;;1.30;1.07;;;;;;;4.50;100.00;101201.63;5033075;28;20442;-68
2022/01/29 08:09:00;;;;;;;0.40;0.20;;;;;;;4.50;100.00;101191.69;5032639;28;20462;-68
2022/01/29 08:11:26;;;;;;;0.40;0.20;;;;;;;4.51;100.00;101190.63;5032883;28;20516;-68
2022/01/29 08:13:53;;;;;;;0.40;0.20;;;;;;;4.50;100.00;101185.53;5033059;28;20443;-68
2022/01/29 08:16:19;;;;;;;0.40;0.30;;;;;;;4.51;100.00;101187.13;5033012;28;20439;-67
2022/01/29 08:18:47;;;;;;;0.40;0.30;;;;;;;4.54;100.00;101192.03;5032954;28;20443;-68
2022/01/29 08:21:14;;;;;;;0.40;0.30;;;;;;;4.58;100.00;101177.06;5032626;28;21045;-68
2022/01/29 08:23:41;;;;;;;0.40;0.23;;;;;;;4.61;100.00;101179.25;5032931;28;20450;-67
2022/01/29 08:26:08;;;;;;;0.40;0.20;;;;;;;4.60;100.00;101166.06;5033010;28;20432;-67
2022/01/29 08:28:34;;;;;;;0.40;0.30;;;;;;;4.59;100.00;101165.28;5032865;28;20447;-67
2022/01/29 08:31:01;;;;;;;0.40;0.20;;;;;;;4.64;100.00;101154.59;5032776;28;20466;-67
2022/01/29 08:33:27;;;;;;;0.40;0.20;;;;;;;4.69;100.00;101157.38;5032492;28;20485;-68
2022/01/29 08:35:57;;;;;;;0.40;0.30;;;;;;;4.71;100.00;101151.75;5032884;28;20443;-67
2022/01/29 08:38:23;;;;;;;0.40;0.20;;;;;;;4.77;100.00;101151.56;5032847;28;20504;-67
2022/01/29 08:40:50;;;;;;;0.40;0.23;;;;;;;4.81;100.00;101143.84;5032370;28;20972;-68
2022/01/29 08:43:17;;;;;;;0.40;0.30;;;;;;;4.84;100.00;101129.94;5032530;28;20933;-68
2022/01/29 08:45:43;;;;;;;0.40;0.20;;;;;;;4.90;100.00;101130.78;5032735;28;20447;-69
2022/01/29 08:48:10;;;;;;;0.40;0.30;;;;;;;4.93;100.00;101125.75;5032714;28;20450;-68
2022/01/29 08:50:36;;;;;;;0.90;0.83;;;;;;;4.97;100.00;101134.13;5032593;28;20469;-69
2022/01/29 08:53:04;;;;;;;0.40;0.20;;;;;;;5.04;100.00;101123.97;5032704;28;20512;-71
2022/01/29 08:55:36;;;;;;;0.40;0.20;;;;;;;5.08;100.00;101119.72;5032807;28;20796;-74
2022/01/29 08:58:03;;;;;;;0.40;0.20;;;;;;;5.10;100.00;101117.63;5032762;28;20458;-69
2022/01/29 09:00:29;;;;;;;0.40;0.20;;;;;;;5.12;100.00;101115.50;5032638;28;20466;-68
2022/01/29 09:02:55;;;;;;;0.40;0.20;;;;;;;5.16;100.00;101110.44;5032601;28;20859;-69
2022/01/29 09:05:22;;;;;;;0.40;0.30;;;;;;;5.20;100.00;101096.25;5032560;28;20450;-69
2022/01/29 09:07:48;;;;;;;0.40;0.30;;;;;;;5.22;100.00;101096.81;5032271;28;20459;-70
2022/01/29 09:10:16;;;;;;;1.00;0.90;;;;;;;5.26;100.00;101081.78;5032893;28;20583;-72
2022/01/29 09:12:43;;;;;;;0.40;0.27;;;;;;;5.29;100.00;101084.00;5035700;28;21042;-70
2022/01/29 09:15:10;;;;;;;0.40;0.30;;;;;;;5.35;100.00;101063.34;5036063;28;20443;-70
2022/01/29 09:17:39;;;;;;;0.40;0.30;;;;;;;5.38;100.00;101059.34;5035928;28;20451;-74
2022/01/29 09:20:07;;;;;;;0.40;0.27;;;;;;;5.39;100.00;101056.41;5035629;28;20471;-71
2022/01/29 09:22:34;;;;;;;0.40;0.30;;;;;;;5.44;100.00;101069.06;5035297;28;20438;-72
2022/01/29 09:25:00;;;;;;;0.40;0.20;;;;;;;5.47;100.00;101077.44;5035275;28;20447;-72
2022/01/29 09:27:28;;;;;;;0.40;0.30;;;;;;;5.46;100.00;101067.78;5035596;28;20497;-71
2022/01/29 09:29:54;;;;;;;0.40;0.30;;;;;;;5.48;100.00;101054.06;5035532;28;20467;-72
2022/01/29 09:32:21;;;;;;;0.40;0.20;;;;;;;5.48;100.00;101064.81;5035408;28;20483;-70
2022/01/29 09:34:47;;;;;;;0.40;0.20;;;;;;;5.51;100.00;101046.31;5035480;28;20813;-70
2022/01/29 09:37:14;;;;;;;0.40;0.20;;;;;;;5.52;100.00;101041.75;5035517;28;20548;-70
2022/01/29 09:39:42;;;;;;;0.40;0.20;;;;;;;5.55;100.00;101031.31;5035555;28;20463;-72
2022/01/29 09:42:09;;;;;;;0.40;0.30;;;;;;;5.58;100.00;101024.63;5035106;28;20969;-70
2022/01/29 09:44:37;;;;;;;0.40;0.30;;;;;;;5.60;100.00;101011.72;5035489;28;20462;-70
2022/01/29 09:47:04;;;;;;;0.40;0.23;;;;;;;5.61;100.00;101016.03;5035482;28;20833;-70
2022/01/29 09:49:33;;;;;;;0.40;0.20;;;;;;;5.67;100.00;101001.59;5035346;28;20458;-71
2022/01/29 09:51:59;;;;;;;0.40;0.20;;;;;;;5.71;100.00;101002.69;5035365;28;20463;-72
2022/01/29 09:54:26;;;;;;;0.40;0.30;;;;;;;5.70;100.00;101002.94;5035416;28;20535;-72
2022/01/29 09:56:52;;;;;;;0.40;0.30;;;;;;;5.72;100.00;101008.88;5035373;28;20443;-73
2022/01/29 09:59:19;;;;;;;0.40;0.30;;;;;;;5.81;100.00;100999.25;5035332;28;20446;-74
2022/01/29 10:01:47;;;;;;;0.40;0.30;;;;;;;5.83;100.00;100991.72;5034834;28;20940;-69
2022/01/29 10:04:13;;;;;;;0.50;0.50;;;;;;;5.85;100.00;100988.78;5034636;28;20456;-69
2022/01/29 10:06:43;;;;;;;0.40;0.30;;;;;;;5.86;100.00;100983.16;5034736;28;20557;-69
2022/01/29 10:09:11;;;;;;;0.40;0.30;;;;;;;5.92;100.00;100979.44;5034374;28;20845;-70
2022/01/29 10:11:39;;;;;;;0.40;0.20;;;;;;;5.95;100.00;100978.13;5034337;28;21068;-70
2022/01/29 10:14:06;;;;;;;0.40;0.20;;;;;;;6.04;100.00;100980.06;5034744;28;20478;-69
2022/01/29 10:16:40;;;;;;;0.40;0.20;;;;;;;6.10;100.00;100975.50;5034931;28;20443;-69
2022/01/29 10:19:10;;;;;;;0.40;0.20;;;;;;;6.13;100.00;100976.88;5034580;28;20431;-70
2022/01/29 10:21:38;;;;;;;0.40;0.27;;;;;;;6.16;100.00;100984.44;5033985;28;20467;-69
2022/01/29 10:24:07;;;;;;;0.40;0.30;;;;;;;6.21;100.00;100981.75;5034539;28;20852;-69
2022/01/29 10:26:35;;;;;;;0.40;0.30;;;;;;;6.25;100.00;100974.78;5034436;28;20443;-69
2022/01/29 10:29:03;;;;;;;0.40;0.30;;;;;;;6.23;100.00;100958.91;5034394;28;20442;-69
2022/01/29 10:31:43;;;;;;;0.40;0.30;;;;;;;6.26;100.00;100947.63;5034254;28;20466;-69
2022/01/29 10:34:19;;;;;;;0.40;0.30;;;;;;;6.34;100.00;100953.56;5034198;28;20482;-69
2022/01/29 10:36:46;;;;;;;0.40;0.30;;;;;;;6.38;100.00;100949.28;5034217;28;20573;-70
2022/01/29 10:39:13;;;;;;;0.40;0.20;;;;;;;6.41;100.00;100951.44;5034120;28;20439;-69
2022/01/29 10:41:39;;;;;;;0.40;0.30;;;;;;;6.46;100.00;100946.06;5034121;28;20612;-69
2022/01/29 10:44:16;;;;;;;0.40;0.30;;;;;;;6.48;100.00;100949.31;5033775;28;20944;-70
2022/01/29 10:46:45;;;;;;;0.40;0.30;;;;;;;6.51;100.00;100940.72;5034148;28;20453;-70
2022/01/29 10:49:22;;;;;;;0.40;0.20;;;;;;;6.52;100.00;100934.25;5034010;28;20458;-69
2022/01/29 10:51:57;;;;;;;0.40;0.20;;;;;;;6.53;100.00;100930.50;5033721;28;20872;-69
2022/01/29 10:54:24;;;;;;;0.40;0.27;;;;;;;6.56;100.00;100935.34;5033824;28;20514;-69
2022/01/29 10:56:56;;;;;;;0.40;0.30;;;;;;;6.59;100.00;100926.72;5033839;28;20450;-72
2022/01/29 10:59:24;;;;;;;0.40;0.30;;;;;;;6.66;100.00;100932.66;5033345;28;20959;-71
2022/01/29 11:01:52;;;;;;;0.40;0.30;;;;;;;6.67;100.00;100930.78;5033689;28;20469;-70
2022/01/29 11:04:20;;;;;;;0.40;0.20;;;;;;;6.70;100.00;100924.88;5033579;28;20435;-70
2022/01/29 11:06:48;;;;;;;0.40;0.27;;;;;;;6.71;100.00;100921.91;5035168;28;20455;-70
2022/01/29 11:09:16;;;;;;;0.40;0.20;;;;;;;6.72;100.00;100911.94;5033589;28;20961;-70
2022/01/29 11:11:45;;;;;;;0.40;0.30;;;;;;;6.74;100.00;100904.44;5033623;28;20458;-70
2022/01/29 11:14:12;;;;;;;0.40;0.20;;;;;;;6.77;100.00;100903.88;5033441;28;20494;-70
2022/01/29 11:16:40;;;;;;;0.70;0.70;;;;;;;6.77;100.00;100893.94;5033645;28;20443;-71
2022/01/29 11:19:07;;;;;;;0.40;0.30;;;;;;;6.81;100.00;100891.50;5034272;28;20447;-69
2022/01/29 11:21:37;;;;;;;0.40;0.20;;;;;;;6.86;100.00;100894.19;5033824;28;20467;-70
2022/01/29 11:24:06;;;;;;;0.40;0.20;;;;;;;6.88;100.00;100891.25;5033416;28;20443;-69
2022/01/29 11:26:33;;;;;;;0.60;0.60;;;;;;;6.91;100.00;100885.34;5033350;28;20442;-69
2022/01/29 11:29:22;;;;;;;0.40;0.30;;;;;;;6.96;100.00;100901.50;5033336;28;20443;-69
2022/01/29 11:32:00;;;;;;;0.40;0.30;;;;;;;6.96;100.00;100886.13;5033369;28;20481;-69
2022/01/29 11:34:26;;;;;;;0.40;0.30;;;;;;;7.00;100.00;100875.63;5032723;28;20475;-69
2022/01/29 11:37:05;;;;;;;0.40;0.20;;;;;;;7.01;100.00;100869.16;5032952;28;20451;-69